sensor_id;sensor_type;location;lat;lon;timestamp;P1;durP1;ratioP1;P2;durP2;ratioP2
79088;SDS011;68489;50.286;9.452;2024-03-23T00:54:34;10.23;;;3.50;;
79088;SDS011;68489;50.286;9.452;2024-03-23T00:57:00;10.10;;;3.03;;
79088;SDS011;68489;50.286;9.452;2024-03-23T00:59:25;11.63;;;3.73;;
79088;SDS011;68489;50.286;9.452;2024-03-23T01:01:53;11.98;;;3.85;;
79088;SDS011;68489;50.286;9.452;2024-03-23T01:04:19;11.05;;;4.43;;
79088;SDS011;68489;50.286;9.452;2024-03-23T01:06:44;11.47;;;3.30;;
79088;SDS011;68489;50.286;9.452;2024-03-23T01:09:09;11.40;;;3.90;;
79088;SDS011;68489;50.286;9.452;2024-03-23T01:11:36;11.90;;;4.07;;
79088;SDS011;68489;50.286;9.452;2024-03-23T01:14:01;12.57;;;3.55;;
79088;SDS011;68489;50.286;9.452;2024-03-23T01:16:27;11.80;;;3.80;;
79088;SDS011;68489;50.286;9.452;2024-03-23T01:18:52;11.50;;;3.50;;
79088;SDS011;68489;50.286;9.452;2024-03-23T01:21:17;13.80;;;3.93;;
79088;SDS011;68489;50.286;9.452;2024-03-23T01:23:42;11.55;;;3.90;;
79088;SDS011;68489;50.286;9.452;2024-03-23T01:26:08;12.82;;;3.88;;
79088;SDS011;68489;50.286;9.452;2024-03-23T01:28:33;12.33;;;3.97;;
79088;SDS011;68489;50.286;9.452;2024-03-23T01:30:58;10.33;;;3.13;;
79088;SDS011;68489;50.286;9.452;2024-03-23T01:33:24;12.37;;;3.87;;
79088;SDS011;68489;50.286;9.452;2024-03-23T01:35:49;10.60;;;3.92;;
79088;SDS011;68489;50.286;9.452;2024-03-23T01:38:14;12.20;;;4.10;;
79088;SDS011;68489;50.286;9.452;2024-03-23T01:40:40;12.67;;;4.50;;
79088;SDS011;68489;50.286;9.452;2024-03-23T01:43:06;11.77;;;4.07;;
79088;SDS011;68489;50.286;9.452;2024-03-23T01:45:35;14.10;;;4.28;;
79088;SDS011;68489;50.286;9.452;2024-03-23T01:48:01;11.68;;;3.30;;
79088;SDS011;68489;50.286;9.452;2024-03-23T01:50:28;11.88;;;4.75;;
79088;SDS011;68489;50.286;9.452;2024-03-23T01:52:55;12.85;;;4.10;;
79088;SDS011;68489;50.286;9.452;2024-03-23T01:55:21;11.13;;;3.75;;
79088;SDS011;68489;50.286;9.452;2024-03-23T01:57:46;9.60;;;2.80;;
79088;SDS011;68489;50.286;9.452;2024-03-23T02:00:13;10.25;;;3.00;;
79088;SDS011;68489;50.286;9.452;2024-03-23T02:02:44;7.40;;;2.50;;
79088;SDS011;68489;50.286;9.452;2024-03-23T02:05:13;9.50;;;2.60;;
79088;SDS011;68489;50.286;9.452;2024-03-23T02:07:39;7.40;;;3.00;;
79088;SDS011;68489;50.286;9.452;2024-03-23T02:10:06;7.53;;;2.25;;
79088;SDS011;68489;50.286;9.452;2024-03-23T02:12:32;8.57;;;3.08;;
79088;SDS011;68489;50.286;9.452;2024-03-23T02:14:57;9.70;;;2.63;;
79088;SDS011;68489;50.286;9.452;2024-03-23T02:17:22;8.13;;;2.73;;
79088;SDS011;68489;50.286;9.452;2024-03-23T02:19:48;7.72;;;2.45;;
79088;SDS011;68489;50.286;9.452;2024-03-23T02:22:13;10.27;;;3.05;;
79088;SDS011;68489;50.286;9.452;2024-03-23T02:24:40;7.55;;;2.38;;
79088;SDS011;68489;50.286;9.452;2024-03-23T02:27:06;8.82;;;2.33;;
79088;SDS011;68489;50.286;9.452;2024-03-23T02:29:31;7.78;;;2.28;;
79088;SDS011;68489;50.286;9.452;2024-03-23T02:31:56;6.18;;;1.65;;
79088;SDS011;68489;50.286;9.452;2024-03-23T02:34:23;7.65;;;2.55;;
79088;SDS011;68489;50.286;9.452;2024-03-23T02:36:49;5.95;;;1.85;;
79088;SDS011;68489;50.286;9.452;2024-03-23T02:39:14;6.72;;;1.58;;
79088;SDS011;68489;50.286;9.452;2024-03-23T02:41:40;5.90;;;1.58;;
79088;SDS011;68489;50.286;9.452;2024-03-23T02:44:05;9.02;;;1.42;;
79088;SDS011;68489;50.286;9.452;2024-03-23T02:46:30;6.85;;;1.50;;
79088;SDS011;68489;50.286;9.452;2024-03-23T02:48:56;8.80;;;1.90;;
79088;SDS011;68489;50.286;9.452;2024-03-23T02:51:21;6.72;;;1.60;;
79088;SDS011;68489;50.286;9.452;2024-03-23T02:53:47;7.50;;;1.53;;
79088;SDS011;68489;50.286;9.452;2024-03-23T02:56:12;7.37;;;1.73;;
79088;SDS011;68489;50.286;9.452;2024-03-23T02:58:41;8.15;;;1.63;;
79088;SDS011;68489;50.286;9.452;2024-03-23T03:01:06;9.80;;;2.03;;
79088;SDS011;68489;50.286;9.452;2024-03-23T03:03:31;7.80;;;2.70;;
79088;SDS011;68489;50.286;9.452;2024-03-23T03:05:57;8.05;;;2.72;;
79088;SDS011;68489;50.286;9.452;2024-03-23T03:08:23;7.40;;;2.22;;
79088;SDS011;68489;50.286;9.452;2024-03-23T03:10:48;6.30;;;1.60;;
79088;SDS011;68489;50.286;9.452;2024-03-23T03:13:13;7.85;;;1.30;;
79088;SDS011;68489;50.286;9.452;2024-03-23T03:15:43;4.60;;;1.00;;
79088;SDS011;68489;50.286;9.452;2024-03-23T03:18:09;5.53;;;1.52;;
79088;SDS011;68489;50.286;9.452;2024-03-23T03:20:36;4.85;;;0.93;;
79088;SDS011;68489;50.286;9.452;2024-03-23T03:23:04;6.07;;;1.45;;
79088;SDS011;68489;50.286;9.452;2024-03-23T03:25:29;6.95;;;2.28;;
79088;SDS011;68489;50.286;9.452;2024-03-23T03:27:55;4.87;;;1.07;;
79088;SDS011;68489;50.286;9.452;2024-03-23T03:30:20;8.13;;;1.40;;
79088;SDS011;68489;50.286;9.452;2024-03-23T03:32:45;7.80;;;1.63;;
79088;SDS011;68489;50.286;9.452;2024-03-23T03:35:11;5.95;;;1.85;;
79088;SDS011;68489;50.286;9.452;2024-03-23T03:37:36;8.05;;;1.67;;
79088;SDS011;68489;50.286;9.452;2024-03-23T03:40:02;8.43;;;2.60;;
79088;SDS011;68489;50.286;9.452;2024-03-23T03:42:28;7.30;;;1.52;;
79088;SDS011;68489;50.286;9.452;2024-03-23T03:44:53;6.35;;;1.52;;
79088;SDS011;68489;50.286;9.452;2024-03-23T03:47:19;7.82;;;2.50;;
79088;SDS011;68489;50.286;9.452;2024-03-23T03:49:44;7.80;;;2.20;;
79088;SDS011;68489;50.286;9.452;2024-03-23T03:52:10;7.18;;;2.25;;
79088;SDS011;68489;50.286;9.452;2024-03-23T03:54:35;9.23;;;2.23;;
79088;SDS011;68489;50.286;9.452;2024-03-23T03:57:00;6.82;;;1.95;;
79088;SDS011;68489;50.286;9.452;2024-03-23T03:59:26;9.23;;;2.75;;
79088;SDS011;68489;50.286;9.452;2024-03-23T04:01:51;11.52;;;4.07;;
79088;SDS011;68489;50.286;9.452;2024-03-23T04:04:16;11.13;;;3.47;;
79088;SDS011;68489;50.286;9.452;2024-03-23T04:06:43;11.93;;;4.10;;
79088;SDS011;68489;50.286;9.452;2024-03-23T04:09:08;8.80;;;3.10;;
79088;SDS011;68489;50.286;9.452;2024-03-23T04:11:35;11.70;;;4.75;;
79088;SDS011;68489;50.286;9.452;2024-03-23T04:14:00;12.10;;;5.50;;
79088;SDS011;68489;50.286;9.452;2024-03-23T04:16:26;13.30;;;4.75;;
79088;SDS011;68489;50.286;9.452;2024-03-23T04:18:53;12.70;;;4.00;;
79088;SDS011;68489;50.286;9.452;2024-03-23T04:21:19;11.60;;;4.13;;
79088;SDS011;68489;50.286;9.452;2024-03-23T04:23:44;10.40;;;3.47;;
79088;SDS011;68489;50.286;9.452;2024-03-23T04:26:09;9.80;;;3.47;;
79088;SDS011;68489;50.286;9.452;2024-03-23T04:28:35;10.93;;;3.67;;
79088;SDS011;68489;50.286;9.452;2024-03-23T04:31:03;9.98;;;3.20;;
79088;SDS011;68489;50.286;9.452;2024-03-23T04:33:29;11.82;;;3.72;;
79088;SDS011;68489;50.286;9.452;2024-03-23T04:35:54;11.83;;;3.93;;
79088;SDS011;68489;50.286;9.452;2024-03-23T04:38:20;10.80;;;3.43;;
79088;SDS011;68489;50.286;9.452;2024-03-23T04:40:45;9.30;;;4.20;;
79088;SDS011;68489;50.286;9.452;2024-03-23T04:43:19;11.07;;;3.75;;
79088;SDS011;68489;50.286;9.452;2024-03-23T04:45:44;11.63;;;3.80;;
79088;SDS011;68489;50.286;9.452;2024-03-23T04:48:09;13.17;;;3.90;;
79088;SDS011;68489;50.286;9.452;2024-03-23T04:50:35;13.93;;;4.43;;
79088;SDS011;68489;50.286;9.452;2024-03-23T04:53:00;13.37;;;4.47;;
79088;SDS011;68489;50.286;9.452;2024-03-23T04:55:25;14.23;;;4.87;;
79088;SDS011;68489;50.286;9.452;2024-03-23T04:57:51;13.70;;;4.55;;
79088;SDS011;68489;50.286;9.452;2024-03-23T05:00:16;13.40;;;4.63;;
79088;SDS011;68489;50.286;9.452;2024-03-23T05:02:42;12.65;;;5.03;;
79088;SDS011;68489;50.286;9.452;2024-03-23T05:05:09;13.73;;;5.15;;
79088;SDS011;68489;50.286;9.452;2024-03-23T05:07:34;16.48;;;6.03;;
79088;SDS011;68489;50.286;9.452;2024-03-23T05:09:59;14.10;;;6.07;;
79088;SDS011;68489;50.286;9.452;2024-03-23T05:12:24;15.37;;;6.73;;
79088;SDS011;68489;50.286;9.452;2024-03-23T05:14:50;18.60;;;8.13;;
79088;SDS011;68489;50.286;9.452;2024-03-23T05:17:16;20.80;;;7.03;;
79088;SDS011;68489;50.286;9.452;2024-03-23T05:19:41;19.45;;;7.80;;
79088;SDS011;68489;50.286;9.452;2024-03-23T05:22:07;22.35;;;7.50;;
79088;SDS011;68489;50.286;9.452;2024-03-23T05:24:32;19.08;;;7.25;;
79088;SDS011;68489;50.286;9.452;2024-03-23T05:26:57;16.40;;;6.47;;
79088;SDS011;68489;50.286;9.452;2024-03-23T05:29:24;14.52;;;6.20;;
79088;SDS011;68489;50.286;9.452;2024-03-23T05:31:51;18.27;;;6.78;;
79088;SDS011;68489;50.286;9.452;2024-03-23T05:34:17;16.00;;;6.00;;
79088;SDS011;68489;50.286;9.452;2024-03-23T05:36:42;15.60;;;5.80;;
79088;SDS011;68489;50.286;9.452;2024-03-23T05:39:08;16.27;;;5.45;;
79088;SDS011;68489;50.286;9.452;2024-03-23T05:41:33;13.27;;;4.63;;
79088;SDS011;68489;50.286;9.452;2024-03-23T05:44:01;14.07;;;4.55;;
79088;SDS011;68489;50.286;9.452;2024-03-23T05:46:26;13.02;;;3.75;;
79088;SDS011;68489;50.286;9.452;2024-03-23T05:48:51;15.13;;;4.13;;
79088;SDS011;68489;50.286;9.452;2024-03-23T05:51:17;13.13;;;3.10;;
79088;SDS011;68489;50.286;9.452;2024-03-23T05:53:42;12.02;;;3.05;;
79088;SDS011;68489;50.286;9.452;2024-03-23T05:56:08;12.57;;;3.08;;
79088;SDS011;68489;50.286;9.452;2024-03-23T05:58:34;9.20;;;2.53;;
79088;SDS011;68489;50.286;9.452;2024-03-23T06:01:02;10.82;;;2.92;;
79088;SDS011;68489;50.286;9.452;2024-03-23T06:03:28;9.90;;;2.33;;
79088;SDS011;68489;50.286;9.452;2024-03-23T06:05:54;14.45;;;3.53;;
79088;SDS011;68489;50.286;9.452;2024-03-23T06:08:20;9.68;;;2.30;;
79088;SDS011;68489;50.286;9.452;2024-03-23T06:10:46;9.90;;;2.22;;
79088;SDS011;68489;50.286;9.452;2024-03-23T06:13:11;9.50;;;2.15;;
79088;SDS011;68489;50.286;9.452;2024-03-23T06:15:37;5.65;;;1.10;;
79088;SDS011;68489;50.286;9.452;2024-03-23T06:18:03;4.88;;;0.40;;
79088;SDS011;68489;50.286;9.452;2024-03-23T06:20:29;5.35;;;0.52;;
79088;SDS011;68489;50.286;9.452;2024-03-23T06:22:54;3.45;;;0.30;;
79088;SDS011;68489;50.286;9.452;2024-03-23T06:25:19;1.47;;;0.10;;
79088;SDS011;68489;50.286;9.452;2024-03-23T06:27:45;1.57;;;0.00;;
79088;SDS011;68489;50.286;9.452;2024-03-23T06:30:10;0.57;;;0.00;;
79088;SDS011;68489;50.286;9.452;2024-03-23T06:32:36;0.57;;;0.00;;
79088;SDS011;68489;50.286;9.452;2024-03-23T06:35:01;1.53;;;0.00;;
79088;SDS011;68489;50.286;9.452;2024-03-23T06:37:32;0.77;;;0.00;;
79088;SDS011;68489;50.286;9.452;2024-03-23T06:39:58;1.00;;;0.00;;
79088;SDS011;68489;50.286;9.452;2024-03-23T06:42:23;0.30;;;0.00;;
79088;SDS011;68489;50.286;9.452;2024-03-23T06:44:49;0.20;;;0.00;;
79088;SDS011;68489;50.286;9.452;2024-03-23T06:47:14;0.50;;;0.00;;
79088;SDS011;68489;50.286;9.452;2024-03-23T06:49:39;0.37;;;0.00;;
79088;SDS011;68489;50.286;9.452;2024-03-23T06:52:05;0.27;;;0.00;;
79088;SDS011;68489;50.286;9.452;2024-03-23T06:54:30;1.02;;;0.00;;
79088;SDS011;68489;50.286;9.452;2024-03-23T06:56:55;0.73;;;0.03;;
79088;SDS011;68489;50.286;9.452;2024-03-23T06:59:21;0.33;;;0.00;;
79088;SDS011;68489;50.286;9.452;2024-03-23T07:01:46;0.27;;;0.00;;
79088;SDS011;68489;50.286;9.452;2024-03-23T07:04:11;0.30;;;0.00;;
79088;SDS011;68489;50.286;9.452;2024-03-23T07:06:43;0.07;;;0.00;;
79088;SDS011;68489;50.286;9.452;2024-03-23T07:09:09;0.20;;;0.00;;
79088;SDS011;68489;50.286;9.452;2024-03-23T07:11:35;0.30;;;0.00;;
79088;SDS011;68489;50.286;9.452;2024-03-23T07:14:00;0.28;;;0.00;;
79088;SDS011;68489;50.286;9.452;2024-03-23T07:16:26;0.22;;;0.00;;
79088;SDS011;68489;50.286;9.452;2024-03-23T07:18:52;0.28;;;0.00;;
79088;SDS011;68489;50.286;9.452;2024-03-23T07:21:17;0.30;;;0.00;;
79088;SDS011;68489;50.286;9.452;2024-03-23T07:23:42;0.40;;;0.00;;
79088;SDS011;68489;50.286;9.452;2024-03-23T07:26:10;0.00;;;0.00;;
79088;SDS011;68489;50.286;9.452;2024-03-23T07:28:35;0.73;;;0.00;;
79088;SDS011;68489;50.286;9.452;2024-03-23T07:31:02;0.50;;;0.00;;
79088;SDS011;68489;50.286;9.452;2024-03-23T07:33:28;0.88;;;0.00;;
79088;SDS011;68489;50.286;9.452;2024-03-23T07:35:53;0.03;;;0.00;;
79088;SDS011;68489;50.286;9.452;2024-03-23T07:38:19;0.77;;;0.10;;
79088;SDS011;68489;50.286;9.452;2024-03-23T07:40:44;1.00;;;0.10;;
79088;SDS011;68489;50.286;9.452;2024-03-23T07:43:10;0.17;;;0.00;;
79088;SDS011;68489;50.286;9.452;2024-03-23T07:45:35;0.33;;;0.00;;
79088;SDS011;68489;50.286;9.452;2024-03-23T07:48:02;0.28;;;0.00;;
79088;SDS011;68489;50.286;9.452;2024-03-23T07:50:28;2.10;;;0.20;;
79088;SDS011;68489;50.286;9.452;2024-03-23T07:52:53;0.53;;;0.00;;
79088;SDS011;68489;50.286;9.452;2024-03-23T07:55:19;0.83;;;0.20;;
79088;SDS011;68489;50.286;9.452;2024-03-23T07:57:44;0.37;;;0.00;;
79088;SDS011;68489;50.286;9.452;2024-03-23T08:00:09;0.60;;;0.00;;
79088;SDS011;68489;50.286;9.452;2024-03-23T08:02:35;0.30;;;0.00;;
79088;SDS011;68489;50.286;9.452;2024-03-23T08:05:01;1.20;;;0.10;;
79088;SDS011;68489;50.286;9.452;2024-03-23T08:07:26;0.43;;;0.00;;
79088;SDS011;68489;50.286;9.452;2024-03-23T08:09:51;0.53;;;0.00;;
79088;SDS011;68489;50.286;9.452;2024-03-23T08:12:16;1.03;;;0.10;;
79088;SDS011;68489;50.286;9.452;2024-03-23T08:14:42;3.30;;;0.10;;
79088;SDS011;68489;50.286;9.452;2024-03-23T08:17:07;2.10;;;0.00;;
79088;SDS011;68489;50.286;9.452;2024-03-23T08:19:33;1.07;;;0.00;;
79088;SDS011;68489;50.286;9.452;2024-03-23T08:21:58;0.80;;;0.10;;
79088;SDS011;68489;50.286;9.452;2024-03-23T08:24:23;0.38;;;0.00;;
79088;SDS011;68489;50.286;9.452;2024-03-23T08:26:48;0.80;;;0.00;;
79088;SDS011;68489;50.286;9.452;2024-03-23T08:29:14;5.93;;;0.03;;
79088;SDS011;68489;50.286;9.452;2024-03-23T08:31:39;0.50;;;0.07;;
79088;SDS011;68489;50.286;9.452;2024-03-23T08:34:04;0.80;;;0.00;;
79088;SDS011;68489;50.286;9.452;2024-03-23T08:36:30;1.80;;;0.10;;
79088;SDS011;68489;50.286;9.452;2024-03-23T08:38:55;0.50;;;0.00;;
79088;SDS011;68489;50.286;9.452;2024-03-23T08:41:21;0.25;;;0.00;;
79088;SDS011;68489;50.286;9.452;2024-03-23T08:43:46;0.43;;;0.00;;
79088;SDS011;68489;50.286;9.452;2024-03-23T08:46:12;0.55;;;0.00;;
79088;SDS011;68489;50.286;9.452;2024-03-23T08:48:40;0.55;;;0.00;;
79088;SDS011;68489;50.286;9.452;2024-03-23T08:51:08;0.40;;;0.00;;
79088;SDS011;68489;50.286;9.452;2024-03-23T08:53:35;2.63;;;0.10;;
79088;SDS011;68489;50.286;9.452;2024-03-23T08:56:02;1.35;;;0.20;;
79088;SDS011;68489;50.286;9.452;2024-03-23T08:58:28;1.85;;;0.10;;
79088;SDS011;68489;50.286;9.452;2024-03-23T09:00:55;0.63;;;0.00;;
79088;SDS011;68489;50.286;9.452;2024-03-23T09:03:24;1.65;;;0.05;;
79088;SDS011;68489;50.286;9.452;2024-03-23T09:05:50;0.88;;;0.10;;
79088;SDS011;68489;50.286;9.452;2024-03-23T09:08:16;1.83;;;0.28;;
79088;SDS011;68489;50.286;9.452;2024-03-23T09:10:41;1.42;;;0.10;;
79088;SDS011;68489;50.286;9.452;2024-03-23T09:13:07;0.40;;;0.00;;
79088;SDS011;68489;50.286;9.452;2024-03-23T09:15:37;1.92;;;0.10;;
79088;SDS011;68489;50.286;9.452;2024-03-23T09:18:10;2.17;;;0.20;;
79088;SDS011;68489;50.286;9.452;2024-03-23T09:20:36;3.35;;;0.30;;
79088;SDS011;68489;50.286;9.452;2024-03-23T09:23:01;2.40;;;0.17;;
79088;SDS011;68489;50.286;9.452;2024-03-23T09:25:26;3.43;;;0.13;;
79088;SDS011;68489;50.286;9.452;2024-03-23T09:27:52;2.10;;;0.10;;
79088;SDS011;68489;50.286;9.452;2024-03-23T09:30:17;5.27;;;0.43;;
79088;SDS011;68489;50.286;9.452;2024-03-23T09:32:45;2.17;;;0.20;;
79088;SDS011;68489;50.286;9.452;2024-03-23T09:35:10;2.85;;;0.40;;
79088;SDS011;68489;50.286;9.452;2024-03-23T09:37:36;4.68;;;0.50;;
79088;SDS011;68489;50.286;9.452;2024-03-23T09:40:05;4.60;;;0.60;;
79088;SDS011;68489;50.286;9.452;2024-03-23T09:42:32;3.88;;;0.35;;
79088;SDS011;68489;50.286;9.452;2024-03-23T09:44:58;4.40;;;0.30;;
79088;SDS011;68489;50.286;9.452;2024-03-23T09:47:24;3.92;;;0.40;;
79088;SDS011;68489;50.286;9.452;2024-03-23T09:49:50;4.15;;;0.30;;
79088;SDS011;68489;50.286;9.452;2024-03-23T09:52:15;4.68;;;0.50;;
79088;SDS011;68489;50.286;9.452;2024-03-23T09:54:41;3.22;;;0.30;;
79088;SDS011;68489;50.286;9.452;2024-03-23T09:57:06;4.67;;;0.50;;
79088;SDS011;68489;50.286;9.452;2024-03-23T09:59:32;4.53;;;0.50;;
79088;SDS011;68489;50.286;9.452;2024-03-23T10:01:59;3.35;;;0.43;;
79088;SDS011;68489;50.286;9.452;2024-03-23T10:04:42;4.33;;;0.37;;
79088;SDS011;68489;50.286;9.452;2024-03-23T10:07:18;4.22;;;0.57;;
79088;SDS011;68489;50.286;9.452;2024-03-23T10:09:45;3.50;;;0.50;;
79088;SDS011;68489;50.286;9.452;2024-03-23T10:12:12;3.83;;;0.60;;
79088;SDS011;68489;50.286;9.452;2024-03-23T10:14:41;4.05;;;0.35;;
79088;SDS011;68489;50.286;9.452;2024-03-23T10:17:15;4.65;;;0.52;;
79088;SDS011;68489;50.286;9.452;2024-03-23T10:19:51;5.68;;;0.70;;
79088;SDS011;68489;50.286;9.452;2024-03-23T10:22:21;6.10;;;0.40;;
79088;SDS011;68489;50.286;9.452;2024-03-23T10:24:48;6.38;;;0.68;;
79088;SDS011;68489;50.286;9.452;2024-03-23T10:27:20;4.00;;;0.30;;
79088;SDS011;68489;50.286;9.452;2024-03-23T10:29:47;3.92;;;1.23;;
79088;SDS011;68489;50.286;9.452;2024-03-23T10:32:14;5.28;;;0.38;;
79088;SDS011;68489;50.286;9.452;2024-03-23T10:34:40;3.08;;;0.52;;
79088;SDS011;68489;50.286;9.452;2024-03-23T10:37:06;3.95;;;0.40;;
79088;SDS011;68489;50.286;9.452;2024-03-23T10:39:33;3.58;;;0.35;;
79088;SDS011;68489;50.286;9.452;2024-03-23T10:42:03;3.08;;;0.20;;
79088;SDS011;68489;50.286;9.452;2024-03-23T10:44:29;5.68;;;0.30;;
79088;SDS011;68489;50.286;9.452;2024-03-23T10:46:56;3.00;;;0.20;;
79088;SDS011;68489;50.286;9.452;2024-03-23T10:49:29;4.18;;;1.38;;
79088;SDS011;68489;50.286;9.452;2024-03-23T10:51:56;6.45;;;0.28;;
79088;SDS011;68489;50.286;9.452;2024-03-23T10:54:23;4.78;;;0.60;;
79088;SDS011;68489;50.286;9.452;2024-03-23T10:56:50;4.93;;;0.40;;
79088;SDS011;68489;50.286;9.452;2024-03-23T10:59:37;2.97;;;0.22;;
79088;SDS011;68489;50.286;9.452;2024-03-23T11:02:03;3.80;;;0.40;;
79088;SDS011;68489;50.286;9.452;2024-03-23T11:04:32;4.05;;;0.35;;
79088;SDS011;68489;50.286;9.452;2024-03-23T11:06:58;5.65;;;0.47;;
79088;SDS011;68489;50.286;9.452;2024-03-23T11:09:39;3.00;;;0.22;;
79088;SDS011;68489;50.286;9.452;2024-03-23T11:14:51;2.63;;;0.10;;
79088;SDS011;68489;50.286;9.452;2024-03-23T11:17:29;3.08;;;0.40;;
79088;SDS011;68489;50.286;9.452;2024-03-23T11:20:01;1.83;;;0.08;;
79088;SDS011;68489;50.286;9.452;2024-03-23T11:25:02;2.92;;;0.10;;
79088;SDS011;68489;50.286;9.452;2024-03-23T11:27:28;2.47;;;0.10;;
79088;SDS011;68489;50.286;9.452;2024-03-23T11:29:53;1.23;;;0.10;;
79088;SDS011;68489;50.286;9.452;2024-03-23T11:32:19;1.23;;;0.10;;
79088;SDS011;68489;50.286;9.452;2024-03-23T11:34:44;1.73;;;0.17;;
79088;SDS011;68489;50.286;9.452;2024-03-23T11:37:09;4.82;;;0.38;;
79088;SDS011;68489;50.286;9.452;2024-03-23T11:39:35;3.33;;;0.43;;
79088;SDS011;68489;50.286;9.452;2024-03-23T11:42:00;3.88;;;0.30;;
79088;SDS011;68489;50.286;9.452;2024-03-23T11:44:26;2.20;;;0.30;;
79088;SDS011;68489;50.286;9.452;2024-03-23T11:46:51;1.27;;;0.10;;
79088;SDS011;68489;50.286;9.452;2024-03-23T11:49:21;2.97;;;0.10;;
79088;SDS011;68489;50.286;9.452;2024-03-23T11:51:49;4.30;;;0.20;;
79088;SDS011;68489;50.286;9.452;2024-03-23T11:54:15;2.63;;;0.10;;
79088;SDS011;68489;50.286;9.452;2024-03-23T11:56:53;1.52;;;0.00;;
79088;SDS011;68489;50.286;9.452;2024-03-23T12:02:01;1.92;;;0.10;;
79088;SDS011;68489;50.286;9.452;2024-03-23T12:04:31;7.38;;;0.20;;
79088;SDS011;68489;50.286;9.452;2024-03-23T12:07:16;2.83;;;0.30;;
79088;SDS011;68489;50.286;9.452;2024-03-23T12:09:46;1.13;;;0.10;;
79088;SDS011;68489;50.286;9.452;2024-03-23T12:12:16;2.15;;;0.17;;
79088;SDS011;68489;50.286;9.452;2024-03-23T12:14:43;2.22;;;0.10;;
79088;SDS011;68489;50.286;9.452;2024-03-23T12:17:12;2.92;;;0.20;;
79088;SDS011;68489;50.286;9.452;2024-03-23T12:19:38;3.15;;;0.20;;
79088;SDS011;68489;50.286;9.452;2024-03-23T12:22:05;3.92;;;0.30;;
79088;SDS011;68489;50.286;9.452;2024-03-23T12:24:31;2.88;;;0.10;;
79088;SDS011;68489;50.286;9.452;2024-03-23T12:27:02;3.78;;;0.10;;
79088;SDS011;68489;50.286;9.452;2024-03-23T12:29:29;2.03;;;0.10;;
79088;SDS011;68489;50.286;9.452;2024-03-23T12:31:58;1.42;;;0.40;;
79088;SDS011;68489;50.286;9.452;2024-03-23T12:34:25;3.05;;;0.10;;
79088;SDS011;68489;50.286;9.452;2024-03-23T12:36:50;4.63;;;0.10;;
79088;SDS011;68489;50.286;9.452;2024-03-23T12:39:15;1.10;;;0.00;;
79088;SDS011;68489;50.286;9.452;2024-03-23T12:41:40;1.23;;;0.10;;
79088;SDS011;68489;50.286;9.452;2024-03-23T12:44:06;1.20;;;0.00;;
79088;SDS011;68489;50.286;9.452;2024-03-23T12:46:33;1.27;;;0.10;;
79088;SDS011;68489;50.286;9.452;2024-03-23T12:48:58;3.15;;;0.13;;
79088;SDS011;68489;50.286;9.452;2024-03-23T12:51:24;2.60;;;0.20;;
79088;SDS011;68489;50.286;9.452;2024-03-23T12:53:50;1.67;;;0.10;;
79088;SDS011;68489;50.286;9.452;2024-03-23T12:56:15;4.25;;;0.40;;
79088;SDS011;68489;50.286;9.452;2024-03-23T12:58:40;3.33;;;0.10;;
79088;SDS011;68489;50.286;9.452;2024-03-23T13:01:06;1.45;;;0.10;;
79088;SDS011;68489;50.286;9.452;2024-03-23T13:03:31;2.40;;;0.20;;
79088;SDS011;68489;50.286;9.452;2024-03-23T13:05:56;6.23;;;0.30;;
79088;SDS011;68489;50.286;9.452;2024-03-23T13:08:22;2.75;;;0.10;;
79088;SDS011;68489;50.286;9.452;2024-03-23T13:10:47;4.47;;;0.30;;
79088;SDS011;68489;50.286;9.452;2024-03-23T13:13:16;2.50;;;0.40;;
79088;SDS011;68489;50.286;9.452;2024-03-23T13:15:41;7.43;;;0.77;;
79088;SDS011;68489;50.286;9.452;2024-03-23T13:18:06;1.97;;;0.20;;
79088;SDS011;68489;50.286;9.452;2024-03-23T13:20:32;2.20;;;0.13;;
79088;SDS011;68489;50.286;9.452;2024-03-23T13:23:00;2.60;;;0.50;;
79088;SDS011;68489;50.286;9.452;2024-03-23T13:25:26;2.83;;;0.13;;
79088;SDS011;68489;50.286;9.452;2024-03-23T13:27:51;4.28;;;0.15;;
79088;SDS011;68489;50.286;9.452;2024-03-23T13:30:16;2.03;;;0.30;;
79088;SDS011;68489;50.286;9.452;2024-03-23T13:32:42;1.83;;;0.10;;
79088;SDS011;68489;50.286;9.452;2024-03-23T13:35:07;4.37;;;0.20;;
79088;SDS011;68489;50.286;9.452;2024-03-23T13:37:32;3.42;;;0.22;;
79088;SDS011;68489;50.286;9.452;2024-03-23T13:39:58;2.75;;;0.22;;
79088;SDS011;68489;50.286;9.452;2024-03-23T13:42:24;3.90;;;0.27;;
79088;SDS011;68489;50.286;9.452;2024-03-23T13:44:51;2.25;;;0.13;;
79088;SDS011;68489;50.286;9.452;2024-03-23T13:47:16;2.70;;;0.20;;
79088;SDS011;68489;50.286;9.452;2024-03-23T13:49:41;2.93;;;0.27;;
79088;SDS011;68489;50.286;9.452;2024-03-23T13:52:06;2.93;;;0.43;;
79088;SDS011;68489;50.286;9.452;2024-03-23T13:54:32;3.00;;;0.10;;
79088;SDS011;68489;50.286;9.452;2024-03-23T13:56:57;0.63;;;0.00;;
79088;SDS011;68489;50.286;9.452;2024-03-23T13:59:23;1.67;;;0.40;;
79088;SDS011;68489;50.286;9.452;2024-03-23T14:01:49;0.90;;;0.00;;
79088;SDS011;68489;50.286;9.452;2024-03-23T14:04:15;1.17;;;0.00;;
79088;SDS011;68489;50.286;9.452;2024-03-23T14:06:45;1.55;;;0.00;;
79088;SDS011;68489;50.286;9.452;2024-03-23T14:09:11;0.88;;;0.00;;
79088;SDS011;68489;50.286;9.452;2024-03-23T14:11:37;0.75;;;0.03;;
79088;SDS011;68489;50.286;9.452;2024-03-23T14:14:02;1.45;;;0.00;;
79088;SDS011;68489;50.286;9.452;2024-03-23T14:16:29;0.50;;;0.00;;
79088;SDS011;68489;50.286;9.452;2024-03-23T14:18:55;1.17;;;0.08;;
79088;SDS011;68489;50.286;9.452;2024-03-23T14:21:20;3.20;;;0.23;;
79088;SDS011;68489;50.286;9.452;2024-03-23T14:23:45;0.83;;;0.20;;
79088;SDS011;68489;50.286;9.452;2024-03-23T14:26:11;0.80;;;0.00;;
79088;SDS011;68489;50.286;9.452;2024-03-23T14:28:36;1.00;;;0.00;;
79088;SDS011;68489;50.286;9.452;2024-03-23T14:31:01;0.40;;;0.00;;
79088;SDS011;68489;50.286;9.452;2024-03-23T14:33:28;0.90;;;0.00;;
79088;SDS011;68489;50.286;9.452;2024-03-23T14:35:56;5.73;;;0.43;;
79088;SDS011;68489;50.286;9.452;2024-03-23T14:38:22;16.63;;;4.45;;
79088;SDS011;68489;50.286;9.452;2024-03-23T14:40:48;3.28;;;0.20;;
79088;SDS011;68489;50.286;9.452;2024-03-23T14:43:13;1.70;;;0.00;;
79088;SDS011;68489;50.286;9.452;2024-03-23T14:45:49;1.42;;;0.10;;
79088;SDS011;68489;50.286;9.452;2024-03-23T14:48:35;1.25;;;0.10;;
79088;SDS011;68489;50.286;9.452;2024-03-23T14:51:01;2.05;;;0.00;;
79088;SDS011;68489;50.286;9.452;2024-03-23T14:53:29;3.47;;;0.20;;
79088;SDS011;68489;50.286;9.452;2024-03-23T14:55:57;1.88;;;0.10;;
79088;SDS011;68489;50.286;9.452;2024-03-23T14:58:24;0.95;;;0.10;;
79088;SDS011;68489;50.286;9.452;2024-03-23T15:00:50;1.75;;;0.10;;
79088;SDS011;68489;50.286;9.452;2024-03-23T15:03:16;1.02;;;0.10;;
79088;SDS011;68489;50.286;9.452;2024-03-23T15:05:42;2.08;;;0.10;;
79088;SDS011;68489;50.286;9.452;2024-03-23T15:08:07;0.88;;;0.00;;
79088;SDS011;68489;50.286;9.452;2024-03-23T15:10:33;1.15;;;0.00;;
79088;SDS011;68489;50.286;9.452;2024-03-23T15:12:58;2.70;;;0.40;;
79088;SDS011;68489;50.286;9.452;2024-03-23T15:15:24;2.23;;;0.10;;
79088;SDS011;68489;50.286;9.452;2024-03-23T15:17:49;5.63;;;0.40;;
79088;SDS011;68489;50.286;9.452;2024-03-23T15:20:15;1.85;;;0.13;;
79088;SDS011;68489;50.286;9.452;2024-03-23T15:22:40;1.13;;;0.00;;
79088;SDS011;68489;50.286;9.452;2024-03-23T15:25:07;1.85;;;0.10;;
79088;SDS011;68489;50.286;9.452;2024-03-23T15:27:33;0.32;;;0.10;;
79088;SDS011;68489;50.286;9.452;2024-03-23T15:29:58;1.67;;;0.20;;
79088;SDS011;68489;50.286;9.452;2024-03-23T15:32:23;1.97;;;0.10;;
79088;SDS011;68489;50.286;9.452;2024-03-23T15:34:49;0.77;;;0.00;;
79088;SDS011;68489;50.286;9.452;2024-03-23T15:37:14;1.33;;;0.10;;
79088;SDS011;68489;50.286;9.452;2024-03-23T15:39:40;0.65;;;0.00;;
79088;SDS011;68489;50.286;9.452;2024-03-23T15:42:06;1.92;;;0.20;;